Greenfield Park, New York
Current Conditions -  °F | °C
As of 1:35 PM on Wednesday 26 Nov 2014 (Local Time) from KMSV Reporting Station
Overcast Overcast  
Wind Chill: 24°   Ceiling: 300
Heat Index: 30°   Visibility: 0.75mi
Dew Point: 30°   Wind: 6mph
Humidity: 100%   Direction: 50°NE
Pressure: 29.97"   Gusts: NA
Location:  41.73°N, 74.49°W
Report Text: KMSV 261835Z AUTO 05005KT 3/4SM OVC003 M01/M01 A2997 RMK AO1
Loading
Personal Weather Stations






























Interactive Weather Map New forecast layout! Learn more

10-Day Weather Forecast

Advertisements
Track Severe Weather on mobile